Time;durP1;ratioP1;P1;durP2;ratioP2;P2;SDS_P1;SDS_P2;PMS_P1;PMS_P2;Temp;Humidity;BMP_temperature;BMP_pressure;BME280_temperature;BME280_humidity;BME280_pressure;Samples;Min_cycle;Max_cycle;Signal;HPM_P1;HPM_P2
2022/04/01 00:00:26;;;;;;;2.78;1.70;;;16.70;50.80;;;;;;5227811;28;20494;-34
2022/04/01 00:03:10;;;;;;;3.65;2.05;;;16.70;49.90;;;;;;5227738;28;20053;-30
2022/04/01 00:05:41;;;;;;;4.20;2.10;;;16.70;51.50;;;;;;5227789;28;20490;-38
2022/04/01 00:08:13;;;;;;;2.63;1.92;;;16.70;50.80;;;;;;5227825;28;20033;-33
2022/04/01 00:10:44;;;;;;;3.63;1.73;;;16.70;50.00;;;;;;5227634;28;20049;-40
2022/04/01 00:13:15;;;;;;;3.50;2.25;;;16.70;50.40;;;;;;5227052;28;20064;-32
2022/04/01 00:15:47;;;;;;;3.53;2.13;;;16.70;50.70;;;;;;5227438;28;20049;-30
2022/04/01 00:18:18;;;;;;;3.30;2.08;;;16.70;50.80;;;;;;5231925;28;20053;-36
2022/04/01 00:20:49;;;;;;;4.15;2.75;;;16.70;50.90;;;;;;5231095;28;20069;-33
2022/04/01 00:23:20;;;;;;;3.35;2.28;;;16.70;51.20;;;;;;5231572;28;20071;-31
2022/04/01 00:25:51;;;;;;;3.28;2.00;;;16.70;51.00;;;;;;5231614;28;20087;-36
2022/04/01 00:28:22;;;;;;;3.47;1.97;;;16.70;51.80;;;;;;5230566;28;20474;-31
2022/04/01 00:30:54;;;;;;;3.43;2.00;;;16.70;50.90;;;;;;5232087;28;20049;-36
2022/04/01 00:33:26;;;;;;;2.83;1.80;;;16.70;51.90;;;;;;5231750;28;20492;-31
2022/04/01 00:35:57;;;;;;;4.93;1.83;;;16.70;51.40;;;;;;5230315;28;20049;-35
2022/04/01 00:38:28;;;;;;;3.43;1.87;;;16.70;52.70;;;;;;5231668;28;20068;-35
2022/04/01 00:40:59;;;;;;;3.13;1.77;;;16.60;52.60;;;;;;5231493;28;20086;-29
2022/04/01 00:43:32;;;;;;;3.53;2.00;;;16.60;52.00;;;;;;5231457;28;20045;-31
2022/04/01 00:46:03;;;;;;;3.13;1.88;;;16.60;53.10;;;;;;5230073;28;20049;-30
2022/04/01 00:48:34;;;;;;;2.63;1.80;;;16.60;52.30;;;;;;5231304;28;20060;-33
2022/04/01 00:51:05;;;;;;;2.63;1.60;;;16.60;52.30;;;;;;5231184;28;20123;-31
2022/04/01 00:53:36;;;;;;;3.47;2.00;;;16.60;52.40;;;;;;5230070;28;20128;-30
2022/04/01 00:56:07;;;;;;;2.87;2.00;;;16.60;52.80;;;;;;5246498;28;20049;-30
2022/04/01 00:58:38;;;;;;;2.70;1.60;;;16.60;53.80;;;;;;5246657;28;20098;-33
2022/04/01 01:01:10;;;;;;;2.78;1.80;;;16.60;52.60;;;;;;5230998;28;20056;-31
2022/04/01 01:03:41;;;;;;;2.93;1.93;;;16.60;52.60;;;;;;5230949;28;20049;-31
2022/04/01 01:06:12;;;;;;;3.87;1.90;;;16.60;52.80;;;;;;5230970;28;20463;-30
2022/04/01 01:08:43;;;;;;;3.13;1.90;;;16.60;52.80;;;;;;5228984;28;20140;-38
2022/04/01 01:11:14;;;;;;;4.63;1.60;;;16.60;52.60;;;;;;5230918;28;20037;-31
2022/04/01 01:13:45;;;;;;;2.80;1.67;;;16.60;52.60;;;;;;5212980;28;20056;-34
2022/04/01 01:16:17;;;;;;;3.15;1.80;;;16.60;53.10;;;;;;5230430;28;20049;-32
2022/04/01 01:19:07;;;;;;;2.47;1.77;;;16.60;54.30;;;;;;5230531;28;20187;-34
2022/04/01 01:21:39;;;;;;;3.85;2.50;;;16.60;54.80;;;;;;5230936;28;20045;-38
2022/04/01 01:24:13;;;;;;;2.67;1.57;;;16.50;53.60;;;;;;5230334;28;20045;-31
2022/04/01 01:26:52;;;;;;;2.80;1.77;;;16.50;53.30;;;;;;5230735;28;20421;-31
2022/04/01 01:29:30;;;;;;;2.72;1.42;;;16.50;53.80;;;;;;5230294;28;20068;-38
2022/04/01 01:32:03;;;;;;;2.60;1.63;;;16.50;53.90;;;;;;5230437;28;20053;-29
2022/04/01 01:34:33;;;;;;;2.17;1.55;;;16.50;55.30;;;;;;5228908;28;20048;-29
2022/04/01 01:37:05;;;;;;;3.07;1.80;;;16.50;54.60;;;;;;5229269;28;20048;-28
2022/04/01 01:39:36;;;;;;;3.13;1.90;;;16.50;53.70;;;;;;5230821;28;20526;-32
2022/04/01 01:42:07;;;;;;;3.42;2.00;;;16.50;53.70;;;;;;5230319;28;20083;-32
2022/04/01 01:44:38;;;;;;;3.72;1.90;;;16.50;54.10;;;;;;5230211;28;20508;-29
2022/04/01 01:47:09;;;;;;;2.80;1.90;;;16.50;56.30;;;;;;5230025;28;20053;-28
2022/04/01 01:54:42;;;;;;;3.30;2.03;;;16.50;54.10;;;;;;5230562;28;20102;-30
2022/04/01 01:55:24;;;;;;;2.78;1.83;;;16.50;56.50;;;;;;5229968;28;20372;-28
2022/04/01 01:57:56;;;;;;;3.37;2.23;;;16.50;55.80;;;;;;5230058;28;20159;-28
2022/04/01 02:00:27;;;;;;;3.10;1.80;;;16.50;57.10;;;;;;5229993;28;20048;-28
2022/04/01 02:02:59;;;;;;;4.13;2.17;;;16.50;55.90;;;;;;5228795;28;20367;-33
2022/04/01 02:05:29;;;;;;;3.78;2.17;;;16.50;58.40;;;;;;5229922;28;20055;-28
2022/04/01 02:08:02;;;;;;;3.50;1.73;;;16.50;55.00;;;;;;5229729;28;20048;-29
2022/04/01 02:10:33;;;;;;;3.17;1.60;;;16.50;55.70;;;;;;5228953;28;20068;-29
2022/04/01 02:13:05;;;;;;;3.40;1.70;;;16.50;55.30;;;;;;5229710;28;20045;-29
2022/04/01 02:15:37;;;;;;;2.20;1.50;;;16.40;56.80;;;;;;5227350;28;20067;-36
2022/04/01 02:18:10;;;;;;;4.13;1.88;;;16.40;57.10;;;;;;5227423;28;20060;-29
2022/04/01 02:20:41;;;;;;;;;;;16.40;55.90;;;;;;5228340;28;20049;-29
2022/04/01 02:23:12;;;;;;;3.10;2.00;;;16.40;55.00;;;;;;5227734;28;19928;-28
2022/04/01 02:25:44;;;;;;;2.90;1.73;;;16.40;60.00;;;;;;5227166;28;20522;-28
2022/04/01 02:28:15;;;;;;;2.63;1.67;;;16.40;55.40;;;;;;5227289;28;20477;-35
2022/04/01 02:30:46;;;;;;;3.10;1.97;;;16.40;55.60;;;;;;5227564;28;20068;-27
2022/04/01 02:33:17;;;;;;;2.43;1.70;;;16.40;56.30;;;;;;5226955;28;20564;-28
2022/04/01 02:35:48;;;;;;;2.43;1.60;;;16.40;59.10;;;;;;5226798;28;20057;-28
2022/04/01 02:38:19;;;;;;;2.00;1.43;;;16.40;54.90;;;;;;5226469;28;20069;-30
2022/04/01 02:40:50;;;;;;;2.23;1.60;;;16.40;54.80;;;;;;5226269;28;20430;-30
2022/04/01 02:43:21;;;;;;;2.80;1.65;;;16.40;60.50;;;;;;5226785;28;20454;-29
2022/04/01 02:45:52;;;;;;;1.73;1.40;;;16.40;55.50;;;;;;5227631;28;20053;-31
2022/04/01 02:48:24;;;;;;;2.75;1.30;;;16.40;56.10;;;;;;5228959;28;20053;-29
2022/04/01 02:50:54;;;;;;;3.25;1.58;;;16.40;56.00;;;;;;5228919;28;20548;-29
2022/04/01 02:53:26;;;;;;;3.03;1.60;;;16.40;55.60;;;;;;5228833;28;20079;-29
2022/04/01 02:55:57;;;;;;;3.33;1.40;;;16.40;58.80;;;;;;5226952;28;20211;-27
2022/04/01 02:58:28;;;;;;;2.53;1.58;;;16.30;57.80;;;;;;5228554;28;20061;-28
2022/04/01 03:00:59;;;;;;;2.33;1.40;;;16.30;56.70;;;;;;5228531;28;20136;-31
2022/04/01 03:03:31;;;;;;;2.13;1.50;;;16.40;55.60;;;;;;5229139;28;20552;-28
2022/04/01 03:06:04;;;;;;;2.00;1.50;;;16.30;54.60;;;;;;5228666;28;20569;-29
2022/04/01 03:08:36;;;;;;;1.90;1.20;;;16.30;60.40;;;;;;5228619;28;20052;-28
2022/04/01 03:11:07;;;;;;;1.80;1.37;;;16.30;57.60;;;;;;5228656;28;20565;-29
2022/04/01 03:13:38;;;;;;;1.55;1.02;;;16.30;58.00;;;;;;5228313;28;20102;-33
2022/04/01 03:16:09;;;;;;;2.17;1.43;;;16.30;57.20;;;;;;5228443;28;20048;-30
2022/04/01 03:18:40;;;;;;;3.40;1.60;;;16.30;55.80;;;;;;5228111;28;20128;-28
2022/04/01 03:21:11;;;;;;;2.77;1.67;;;16.30;61.40;;;;;;5228722;28;20455;-28
2022/04/01 03:23:45;;;;;;;1.70;1.13;;;16.30;57.60;;;;;;5228207;28;20040;-30
2022/04/01 03:26:16;;;;;;;2.40;1.50;;;16.30;56.00;;;;;;5228463;28;20147;-29
2022/04/01 03:28:47;;;;;;;2.30;1.60;;;16.30;57.50;;;;;;5228610;28;20052;-28
2022/04/01 03:31:18;;;;;;;2.47;1.43;;;16.30;56.90;;;;;;5228726;28;20045;-27
2022/04/01 03:33:51;;;;;;;2.77;1.60;;;16.30;58.50;;;;;;5228188;28;20076;-28
2022/04/01 03:36:22;;;;;;;2.35;1.58;;;16.30;57.60;;;;;;5228537;28;20129;-31
2022/04/01 03:38:53;;;;;;;3.03;1.63;;;16.30;56.20;;;;;;5228051;28;20137;-27
2022/04/01 03:41:24;;;;;;;2.30;1.33;;;16.30;56.00;;;;;;5228144;28;20124;-29
2022/04/01 03:43:55;;;;;;;1.70;1.40;;;16.30;59.80;;;;;;5226778;28;20479;-28
2022/04/01 03:46:26;;;;;;;2.13;1.37;;;16.30;59.00;;;;;;5227783;28;20049;-31
2022/04/01 03:49:03;;;;;;;1.93;1.23;;;16.30;59.60;;;;;;5242884;28;20491;-31
2022/04/01 03:51:34;;;;;;;2.40;1.23;;;16.30;65.20;;;;;;5227221;28;20052;-34
2022/04/01 03:54:05;;;;;;;2.43;1.37;;;16.30;68.10;;;;;;5259739;28;20068;-32
2022/04/01 03:56:37;;;;;;;2.40;1.23;;;16.30;75.20;;;;;;5227572;28;20049;-38
2022/04/01 03:59:09;;;;;;;1.87;1.33;;;16.40;63.00;;;;;;5226452;28;20053;-30
2022/04/01 04:01:40;;;;;;;1.97;1.30;;;16.50;52.90;;;;;;5259340;28;20045;-32
2022/04/01 04:04:13;;;;;;;2.72;1.40;;;16.60;49.60;;;;;;5227031;28;20044;-30
2022/04/01 04:06:44;;;;;;;2.05;1.38;;;16.70;48.90;;;;;;5227508;28;20089;-31
2022/04/01 04:09:16;;;;;;;1.83;1.30;;;16.80;48.80;;;;;;5242526;28;20037;-30
2022/04/01 04:11:47;;;;;;;1.63;1.30;;;16.80;50.00;;;;;;5259321;28;20464;-29
2022/04/01 04:14:20;;;;;;;2.23;1.60;;;16.60;49.20;;;;;;5226921;28;20107;-30
2022/04/01 04:16:52;;;;;;;2.40;1.50;;;16.30;49.70;;;;;;5258997;28;20041;-28
2022/04/01 04:19:31;;;;;;;2.40;1.80;;;16.00;49.80;;;;;;5259420;28;20053;-28
2022/04/01 04:22:15;;;;;;;2.45;1.65;;;15.70;49.90;;;;;;5243001;28;20045;-31
2022/04/01 04:24:58;;;;;;;;;;;15.50;50.30;;;;;;5227470;28;20087;-28
2022/04/01 04:27:29;;;;;;;;;;;15.40;49.90;;;;;;5228125;28;19925;-35
2022/04/01 04:30:07;;;;;;;3.87;1.97;;;15.30;50.20;;;;;;5227370;28;20133;-28
2022/04/01 04:32:54;;;;;;;2.23;1.40;;;15.10;50.40;;;;;;5227481;28;20469;-32
2022/04/01 04:35:25;;;;;;;2.40;1.63;;;14.90;50.10;;;;;;5227783;28;20459;-31
2022/04/01 04:37:57;;;;;;;3.23;1.73;;;14.80;49.90;;;;;;5227261;28;20049;-29
2022/04/01 04:40:28;;;;;;;2.83;1.87;;;14.70;50.30;;;;;;5242677;28;20103;-28
2022/04/01 04:42:59;;;;;;;3.43;1.80;;;14.70;50.60;;;;;;5259644;28;20045;-38
2022/04/01 04:45:30;;;;;;;2.70;1.70;;;14.70;50.60;;;;;;5260226;28;20054;-37
2022/04/01 04:48:01;;;;;;;2.50;1.70;;;14.80;50.00;;;;;;5227259;28;20045;-29
2022/04/01 04:50:33;;;;;;;3.53;2.30;;;14.80;50.00;;;;;;5259355;28;20602;-33
2022/04/01 04:53:05;;;;;;;2.70;2.10;;;14.90;49.80;;;;;;5259603;28;20069;-29
2022/04/01 04:55:36;;;;;;;3.03;1.93;;;14.90;49.90;;;;;;5227139;28;20099;-37
2022/04/01 04:58:10;;;;;;;3.27;2.23;;;15.10;50.10;;;;;;5259319;28;20056;-35
2022/04/01 05:00:43;;;;;;;3.20;1.80;;;15.10;49.50;;;;;;5227857;28;20049;-29
2022/04/01 05:03:29;;;;;;;3.47;2.15;;;15.20;49.60;;;;;;5229642;28;20098;-29
2022/04/01 05:06:01;;;;;;;3.23;1.80;;;15.20;49.50;;;;;;5262998;28;20073;-29
2022/04/01 05:08:48;;;;;;;2.90;1.93;;;15.30;49.20;;;;;;5262928;28;20076;-30
2022/04/01 05:11:34;;;;;;;3.93;2.10;;;15.30;49.20;;;;;;5230891;28;20060;-28
2022/04/01 05:14:38;;;;;;;2.60;1.70;;;15.30;49.20;;;;;;5231189;28;20117;-35
2022/04/01 05:17:26;;;;;;;3.30;1.90;;;15.30;49.50;;;;;;5200135;28;20089;-29
2022/04/01 05:19:59;;;;;;;3.23;2.40;;;15.30;49.40;;;;;;5171866;28;20050;-31
2022/04/01 05:22:39;;;;;;;;;;;15.20;50.40;;;;;;5171601;28;20053;-29
2022/04/01 05:25:09;;;;;;;2.90;1.90;;;15.10;49.80;;;;;;5170915;28;19921;-34
2022/04/01 05:27:41;;;;;;;3.97;2.17;;;15.10;49.70;;;;;;5187287;28;20077;-32
2022/04/01 05:30:13;;;;;;;3.00;1.77;;;15.00;50.00;;;;;;5170922;28;20531;-39
2022/04/01 05:32:59;;;;;;;3.95;2.10;;;14.90;49.80;;;;;;5187178;28;20420;-32
2022/04/01 05:35:33;;;;;;;2.40;1.80;;;14.90;50.20;;;;;;5170782;28;20069;-31
2022/04/01 05:38:07;;;;;;;2.40;1.80;;;14.80;50.00;;;;;;5187115;28;20084;-30
2022/04/01 05:40:38;;;;;;;2.20;1.73;;;14.80;50.10;;;;;;5186970;28;20140;-32
2022/04/01 05:43:10;;;;;;;4.00;2.10;;;14.70;50.30;;;;;;5186844;28;20077;-30
2022/04/01 05:45:43;;;;;;;3.03;1.93;;;14.70;50.30;;;;;;5186784;28;20061;-33
2022/04/01 05:48:14;;;;;;;2.85;2.03;;;14.60;50.40;;;;;;5183629;28;20058;-31
2022/04/01 05:50:45;;;;;;;3.40;1.97;;;14.60;50.40;;;;;;5167443;28;20490;-30
2022/04/01 05:53:16;;;;;;;2.43;1.73;;;14.50;50.50;;;;;;5196764;28;20142;-30
2022/04/01 05:55:47;;;;;;;3.30;2.00;;;14.50;50.10;;;;;;5215814;28;20056;-30
2022/04/01 05:58:18;;;;;;;2.77;1.93;;;14.40;50.50;;;;;;5214675;28;20060;-31
2022/04/01 06:00:56;;;;;;;3.03;2.13;;;14.40;50.70;;;;;;5218331;28;20049;-39
2022/04/01 06:03:35;;;;;;;3.37;2.10;;;14.40;50.60;;;;;;5210073;28;20060;-31
2022/04/01 06:06:20;;;;;;;4.03;2.20;;;14.40;51.20;;;;;;5217086;28;20131;-35
2022/04/01 06:08:58;;;;;;;3.23;1.93;;;14.30;50.90;;;;;;5211216;28;20542;-30
2022/04/01 06:11:51;;;;;;;2.50;1.80;;;14.30;51.10;;;;;;5215441;28;20041;-35
2022/04/01 06:15:08;;;;;;;4.40;2.13;;;14.30;51.30;;;;;;5214943;28;20045;-29
2022/04/01 06:17:48;;;;;;;2.73;1.93;;;14.20;51.20;;;;;;5210918;28;20174;-30
2022/04/01 06:20:21;;;;;;;3.13;1.90;;;14.20;51.00;;;;;;5211084;28;20502;-36
2022/04/01 06:23:23;;;;;;;4.07;2.60;;;14.10;51.00;;;;;;5201984;28;20042;-29
2022/04/01 06:25:57;;;;;;;2.40;1.80;;;14.10;51.20;;;;;;5191609;28;20057;-31
2022/04/01 06:28:29;;;;;;;3.07;1.90;;;14.10;51.00;;;;;;5216955;28;20431;-30
2022/04/01 06:31:04;;;;;;;2.90;1.90;;;14.10;51.10;;;;;;5193871;28;20088;-30
2022/04/01 06:33:52;;;;;;;4.10;2.43;;;14.10;51.20;;;;;;5213315;28;20057;-29
2022/04/01 06:36:39;;;;;;;2.87;2.03;;;14.10;51.40;;;;;;5207486;28;20076;-33
2022/04/01 06:39:11;;;;;;;3.50;2.27;;;14.00;51.10;;;;;;5200223;28;20207;-40
2022/04/01 06:41:48;;;;;;;7.23;5.00;;;14.00;51.10;;;;;;5193017;28;20050;-31
2022/04/01 06:44:18;;;;;;;3.20;1.97;;;14.00;51.50;;;;;;5213890;28;20056;-30
2022/04/01 06:46:51;;;;;;;5.33;3.90;;;13.90;50.90;;;;;;5206542;28;20049;-30
2022/04/01 06:49:23;;;;;;;3.72;2.67;;;13.90;51.50;;;;;;5212045;28;20080;-30
2022/04/01 06:51:54;;;;;;;5.13;3.40;;;13.90;51.40;;;;;;5210842;28;20593;-35
2022/04/01 06:54:26;;;;;;;3.10;2.10;;;13.90;52.10;;;;;;5211248;28;20099;-31
2022/04/01 06:56:57;;;;;;;3.30;1.90;;;13.90;51.80;;;;;;5210016;28;20088;-35
2022/04/01 06:59:28;;;;;;;3.10;1.90;;;13.90;51.10;;;;;;5216575;28;20072;-30
2022/04/01 07:01:59;;;;;;;4.87;4.13;;;13.90;51.40;;;;;;5211752;28;20091;-33
2022/04/01 07:04:31;;;;;;;3.47;2.20;;;13.90;51.50;;;;;;5206418;28;20104;-35
2022/04/01 07:07:04;;;;;;;3.33;2.40;;;13.80;51.60;;;;;;5212690;28;20045;-31
2022/04/01 07:09:38;;;;;;;2.38;1.80;;;13.80;51.00;;;;;;5225434;28;20049;-33
2022/04/01 07:12:11;;;;;;;3.10;2.20;;;13.80;51.10;;;;;;5214906;28;20107;-33
2022/04/01 07:14:42;;;;;;;3.72;2.28;;;13.80;51.60;;;;;;5211666;28;20041;-33
2022/04/01 07:17:15;;;;;;;3.70;2.45;;;13.80;51.80;;;;;;5216430;28;20128;-30
2022/04/01 07:19:47;;;;;;;2.27;1.80;;;13.80;52.00;;;;;;5208879;28;20052;-37
2022/04/01 07:22:18;;;;;;;3.20;2.00;;;13.80;51.40;;;;;;5216352;28;20068;-31
2022/04/01 07:24:49;;;;;;;2.73;1.77;;;13.80;51.60;;;;;;5210335;28;20041;-35
2022/04/01 07:27:21;;;;;;;2.97;2.10;;;13.70;51.00;;;;;;5210597;28;20045;-33
2022/04/01 07:29:52;;;;;;;3.17;2.10;;;13.70;50.80;;;;;;5213338;28;20396;-32
2022/04/01 07:32:30;;;;;;;3.93;2.47;;;13.70;51.20;;;;;;5208280;28;20582;-31
2022/04/01 07:35:02;;;;;;;14.60;10.87;;;13.70;51.40;;;;;;5200518;28;20500;-31
2022/04/01 07:37:34;;;;;;;4.72;2.75;;;13.70;52.00;;;;;;5214421;28;20060;-32
2022/04/01 07:40:05;;;;;;;3.50;2.57;;;13.80;51.90;;;;;;5216374;28;20045;-36
2022/04/01 07:42:38;;;;;;;3.80;2.90;;;13.90;51.50;;;;;;5208802;28;20037;-36
2022/04/01 07:45:10;;;;;;;;;;;13.90;51.90;;;;;;5216460;28;20404;-32
2022/04/01 07:47:44;;;;;;;3.77;2.23;;;13.90;51.40;;;;;;5211538;28;19925;-30
2022/04/01 07:50:17;;;;;;;4.60;3.40;;;13.90;50.90;;;;;;5214892;28;20052;-31
2022/04/01 07:52:48;;;;;;;3.40;2.30;;;13.80;51.60;;;;;;5210488;28;20047;-30
2022/04/01 07:55:20;;;;;;;3.67;1.90;;;13.80;50.90;;;;;;5214253;28;20046;-33
2022/04/01 07:57:53;;;;;;;2.83;1.93;;;13.90;50.80;;;;;;5213853;28;20044;-31
2022/04/01 08:00:24;;;;;;;3.47;2.92;;;13.80;50.20;;;;;;5207843;28;20158;-32
2022/04/01 08:02:56;;;;;;;3.47;2.27;;;13.80;50.30;;;;;;5212398;28;20042;-32
2022/04/01 08:05:29;;;;;;;3.60;2.08;;;13.80;50.10;;;;;;5214907;28;20118;-31
2022/04/01 08:08:01;;;;;;;6.13;2.70;;;13.80;50.50;;;;;;5212069;28;20046;-32
2022/04/01 08:10:32;;;;;;;2.80;1.83;;;13.80;50.80;;;;;;5209884;28;20068;-32
2022/04/01 08:13:04;;;;;;;2.43;1.60;;;13.80;50.10;;;;;;5217821;28;20045;-32
2022/04/01 08:15:35;;;;;;;3.78;2.92;;;13.80;49.30;;;;;;5210450;28;20073;-32
2022/04/01 08:18:09;;;;;;;2.37;1.47;;;13.80;50.20;;;;;;5215907;28;20052;-36
2022/04/01 08:20:39;;;;;;;4.25;3.58;;;13.80;49.80;;;;;;5206484;28;20119;-40
2022/04/01 08:23:11;;;;;;;11.03;9.93;;;13.70;50.40;;;;;;5217921;28;20419;-32
2022/04/01 08:25:42;;;;;;;2.50;1.67;;;13.70;50.20;;;;;;5212557;28;20128;-34
2022/04/01 08:28:13;;;;;;;6.60;5.93;;;13.80;49.80;;;;;;5208179;28;20453;-33
2022/04/01 08:30:44;;;;;;;4.07;2.20;;;13.80;50.10;;;;;;5211312;28;20045;-36
2022/04/01 08:33:17;;;;;;;1.97;1.50;;;13.80;49.60;;;;;;5206648;28;20046;-33
2022/04/01 08:35:48;;;;;;;2.47;1.63;;;13.80;49.70;;;;;;5219041;28;20056;-38
2022/04/01 08:38:20;;;;;;;3.63;2.33;;;13.80;49.80;;;;;;5219464;28;20060;-35
2022/04/01 08:40:51;;;;;;;2.33;1.23;;;13.80;49.10;;;;;;5215106;28;20407;-35
2022/04/01 08:43:30;;;;;;;2.63;1.57;;;13.80;49.00;;;;;;5212693;28;20064;-36
2022/04/01 08:46:03;;;;;;;;;;;13.70;47.60;;;;;;5218434;28;20041;-38
2022/04/01 08:48:34;;;;;;;;;;;13.80;47.80;;;;;;5214334;28;19921;-35
2022/04/01 08:51:05;;;;;;;;;;;14.00;49.90;;;;;;5217813;28;20393;-41
2022/04/01 08:53:41;;;;;;;;;;;14.20;47.90;;;;;;5212340;28;20432;-33
2022/04/01 08:56:12;;;;;;;4.10;1.90;;;14.30;48.00;;;;;;5210281;28;19932;-33
2022/04/01 08:58:43;;;;;;;3.80;1.60;;;14.50;47.70;;;;;;5218191;28;20095;-38
2022/04/01 09:01:16;;;;;;;2.07;1.20;;;14.70;47.60;;;;;;5214919;28;20045;-41
2022/04/01 09:03:48;;;;;;;;;;;14.80;47.60;;;;;;5211712;28;20224;-33
2022/04/01 09:06:19;;;;;;;2.83;1.67;;;14.90;49.10;;;;;;5219462;28;19987;-32
2022/04/01 09:08:56;;;;;;;5.00;2.33;;;15.00;48.40;;;;;;5212568;28;20041;-31
2022/04/01 09:11:27;;;;;;;4.10;1.70;;;15.10;48.60;;;;;;5219966;28;20115;-32
2022/04/01 09:14:01;;;;;;;2.47;1.63;;;15.10;48.00;;;;;;5214455;28;20049;-32
2022/04/01 09:16:36;;;;;;;5.20;1.50;;;15.20;50.90;;;;;;5220959;28;20048;-31
2022/04/01 09:19:10;;;;;;;2.57;1.80;;;15.30;47.80;;;;;;5210895;28;20403;-33
2022/04/01 09:21:44;;;;;;;2.92;1.35;;;15.30;47.60;;;;;;5211727;28;20103;-35
2022/04/01 09:24:15;;;;;;;5.80;1.30;;;15.30;47.30;;;;;;5214062;28;20037;-30
2022/04/01 09:26:52;;;;;;;2.97;1.60;;;15.40;48.10;;;;;;5215111;28;20041;-30
2022/04/01 09:29:25;;;;;;;2.53;1.13;;;15.50;49.00;;;;;;5214426;28;20180;-31
2022/04/01 09:32:05;;;;;;;2.47;1.50;;;15.50;52.40;;;;;;5209721;28;20155;-33
2022/04/01 09:34:40;;;;;;;2.70;2.20;;;15.60;50.60;;;;;;5209320;28;20475;-30
2022/04/01 09:37:11;;;;;;;2.57;1.77;;;15.60;47.50;;;;;;5214804;28;20045;-31
2022/04/01 09:39:45;;;;;;;5.07;1.50;;;15.70;47.80;;;;;;5230446;28;20042;-36
2022/04/01 09:42:16;;;;;;;2.73;1.40;;;15.70;47.50;;;;;;5210344;28;20044;-30
2022/04/01 09:44:47;;;;;;;2.67;1.60;;;15.70;46.80;;;;;;5233350;28;20056;-30
2022/04/01 09:47:19;;;;;;;3.83;2.00;;;15.80;49.10;;;;;;5214467;28;20045;-30
2022/04/01 09:49:55;;;;;;;2.07;1.33;;;15.80;49.50;;;;;;5222353;28;20049;-31
2022/04/01 09:52:28;;;;;;;2.70;1.10;;;15.80;57.80;;;;;;5208944;28;20049;-33
2022/04/01 09:55:00;;;;;;;4.97;1.70;;;15.80;47.20;;;;;;5197764;28;20469;-34
2022/04/01 09:57:33;;;;;;;3.60;1.70;;;15.80;46.50;;;;;;5182476;28;20057;-35
2022/04/01 10:00:09;;;;;;;3.90;1.60;;;15.90;49.00;;;;;;5199102;28;20053;-31
2022/04/01 10:02:41;;;;;;;3.30;1.60;;;15.90;56.30;;;;;;5179514;28;20056;-30
2022/04/01 10:05:13;;;;;;;3.03;1.63;;;15.90;51.80;;;;;;5167784;28;20053;-32
2022/04/01 10:07:44;;;;;;;5.00;2.00;;;15.90;52.00;;;;;;5183701;28;20049;-31
2022/04/01 10:10:17;;;;;;;2.53;1.88;;;15.90;47.80;;;;;;5180010;28;20057;-30
2022/04/01 10:12:50;;;;;;;5.67;1.67;;;15.90;56.80;;;;;;5181101;28;20046;-30
2022/04/01 10:15:32;;;;;;;2.60;1.40;;;16.00;57.90;;;;;;5176859;28;20046;-30
2022/04/01 10:18:04;;;;;;;2.63;1.30;;;16.00;56.30;;;;;;5185120;28;20049;-31
2022/04/01 10:20:38;;;;;;;2.72;1.35;;;15.90;49.30;;;;;;5172069;28;20061;-31
2022/04/01 10:23:11;;;;;;;1.80;1.13;;;16.00;59.80;;;;;;5182308;28;20061;-35
2022/04/01 10:25:53;;;;;;;3.40;1.80;;;15.90;57.90;;;;;;5197760;28;20050;-38
2022/04/01 10:28:26;;;;;;;3.22;1.80;;;16.00;50.00;;;;;;5182850;28;20132;-31
2022/04/01 10:30:59;;;;;;;2.25;1.30;;;15.90;52.30;;;;;;5188798;28;20066;-33
2022/04/01 10:33:36;;;;;;;3.17;1.70;;;15.70;48.50;;;;;;5208295;28;20448;-30
2022/04/01 10:36:17;;;;;;;1.77;1.20;;;15.30;48.40;;;;;;5211279;28;20140;-32
2022/04/01 10:38:49;;;;;;;;;;;14.90;49.60;;;;;;5213929;28;20395;-32
2022/04/01 10:41:21;;;;;;;;;;;14.70;49.20;;;;;;5209624;28;19946;-30
2022/04/01 10:43:55;;;;;;;;;;;14.50;49.70;;;;;;5216505;28;19943;-30
2022/04/01 10:46:26;;;;;;;3.93;2.50;;;14.40;49.20;;;;;;5213220;28;19921;-29
2022/04/01 10:52:14;;;;;;;3.37;1.80;;;14.20;49.40;;;;;;5210078;28;20052;-32
2022/04/01 10:55:18;;;;;;;2.73;1.80;;;14.10;48.80;;;;;;5216330;28;20069;-32
2022/04/01 10:58:08;;;;;;;3.10;2.00;;;14.00;48.90;;;;;;5182828;28;20128;-32
2022/04/01 11:00:52;;;;;;;2.60;1.70;;;14.00;48.90;;;;;;5182355;28;20057;-31
2022/04/01 11:03:25;;;;;;;3.73;2.43;;;13.90;49.40;;;;;;5182437;28;20064;-32
2022/04/01 11:06:17;;;;;;;;;;;13.90;49.30;;;;;;5178637;28;20503;-35
2022/04/01 11:09:01;;;;;;;2.60;2.00;;;13.80;49.00;;;;;;5182254;28;19926;-30
2022/04/01 11:11:37;;;;;;;2.87;1.87;;;13.80;48.80;;;;;;5167407;28;20042;-30
2022/04/01 11:14:08;;;;;;;3.80;2.70;;;13.80;48.90;;;;;;5165865;28;20419;-37
2022/04/01 11:16:49;;;;;;;3.70;2.10;;;13.80;49.10;;;;;;5181650;28;20049;-33
2022/04/01 11:19:27;;;;;;;3.03;2.13;;;13.80;48.80;;;;;;5161871;28;20065;-35
2022/04/01 11:21:58;;;;;;;3.03;1.73;;;13.80;49.40;;;;;;5165749;28;20172;-34
2022/04/01 11:24:30;;;;;;;2.63;2.00;;;13.90;49.40;;;;;;5181776;28;20050;-39
2022/04/01 11:27:28;;;;;;;4.30;1.93;;;13.90;49.40;;;;;;5182128;28;20068;-31
2022/04/01 11:30:09;;;;;;;3.20;1.93;;;13.90;49.50;;;;;;5175979;28;20050;-30
2022/04/01 11:32:41;;;;;;;2.50;1.83;;;14.00;49.50;;;;;;5156534;28;20523;-31
2022/04/01 11:35:13;;;;;;;3.07;1.70;;;13.90;49.20;;;;;;5212840;28;20111;-31
2022/04/01 11:37:45;;;;;;;3.07;1.90;;;13.90;49.10;;;;;;5225331;28;20040;-30
2022/04/01 11:40:21;;;;;;;2.67;2.00;;;13.90;48.50;;;;;;5225222;28;20079;-30
2022/04/01 11:43:04;;;;;;;2.70;1.80;;;13.90;48.60;;;;;;5225135;28;20136;-30
2022/04/01 11:45:44;;;;;;;2.10;1.90;;;13.90;48.50;;;;;;5221437;28;20127;-35
2022/04/01 11:48:22;;;;;;;3.10;2.13;;;13.90;48.40;;;;;;5215543;28;20049;-32
2022/04/01 11:50:57;;;;;;;2.73;1.80;;;13.90;48.30;;;;;;5222842;28;20033;-37
2022/04/01 11:53:51;;;;;;;3.97;1.90;;;13.80;48.40;;;;;;5224823;28;20059;-35
2022/04/01 11:56:26;;;;;;;3.40;2.30;;;13.90;49.10;;;;;;5217792;28;20057;-35
2022/04/01 11:59:02;;;;;;;3.67;2.33;;;13.80;48.70;;;;;;5224853;28;20047;-33
2022/04/01 12:04:34;;;;;;;4.97;3.23;;;13.80;49.30;;;;;;5173488;28;20057;-30
2022/04/01 12:10:27;;;;;;;3.27;2.00;;;13.80;49.00;;;;;;5175166;28;20069;-32
2022/04/01 12:13:05;;;;;;;3.30;2.47;;;13.80;48.30;;;;;;5183669;28;20129;-34
2022/04/01 12:15:40;;;;;;;3.05;2.15;;;13.80;48.20;;;;;;5172407;28;20050;-30
2022/04/01 12:18:17;;;;;;;2.33;1.80;;;13.80;48.20;;;;;;5183806;28;20045;-34
2022/04/01 12:20:52;;;;;;;2.70;1.80;;;13.70;48.40;;;;;;5174238;28;20105;-37
2022/04/01 12:23:30;;;;;;;3.07;2.23;;;13.70;48.70;;;;;;5177016;28;20062;-33
2022/04/01 12:26:25;;;;;;;2.47;1.97;;;13.70;49.50;;;;;;5167029;28;20057;-34
2022/04/01 12:29:01;;;;;;;3.50;2.33;;;13.70;48.30;;;;;;5176012;28;20053;-30
2022/04/01 12:31:35;;;;;;;2.13;1.48;;;13.70;48.60;;;;;;5177230;28;20495;-30
2022/04/01 12:34:11;;;;;;;2.80;2.07;;;13.70;48.80;;;;;;5152365;28;20054;-33
2022/04/01 12:37:11;;;;;;;2.77;1.80;;;13.70;49.00;;;;;;5151754;28;20085;-34
2022/04/01 12:40:02;;;;;;;2.80;1.70;;;13.70;49.90;;;;;;5170758;28;20463;-30
2022/04/01 12:42:38;;;;;;;2.75;1.80;;;13.70;49.80;;;;;;5208650;28;20065;-30
2022/04/01 12:46:14;;;;;;;1.70;1.30;;;13.70;49.80;;;;;;5331064;27;20494;-32
2022/04/01 12:48:55;;;;;;;2.30;1.70;;;13.80;49.60;;;;;;5290992;28;20477;-32
2022/04/01 12:51:29;;;;;;;2.50;1.70;;;13.70;49.60;;;;;;5308980;28;20093;-41
2022/04/01 12:54:11;;;;;;;3.00;1.73;;;13.70;49.10;;;;;;5309198;28;20044;-35
2022/04/01 12:56:44;;;;;;;3.20;1.83;;;13.70;49.60;;;;;;5309737;28;20477;-33
2022/04/01 12:59:18;;;;;;;2.50;1.57;;;13.70;49.30;;;;;;5256991;28;20043;-33
2022/04/01 13:01:56;;;;;;;2.17;1.42;;;13.70;49.60;;;;;;5308743;28;20053;-31
2022/04/01 13:04:28;;;;;;;2.67;1.70;;;13.70;49.20;;;;;;5309059;28;20081;-32
2022/04/01 13:07:15;;;;;;;2.13;1.43;;;13.70;49.00;;;;;;5290118;28;20039;-32
2022/04/01 13:09:53;;;;;;;2.17;1.50;;;13.70;48.40;;;;;;5308600;28;20070;-31
2022/04/01 13:12:43;;;;;;;1.93;1.67;;;13.70;49.00;;;;;;5308567;28;20404;-32
2022/04/01 13:15:19;;;;;;;2.50;1.60;;;13.60;48.60;;;;;;5291253;28;20066;-32
2022/04/01 13:17:55;;;;;;;2.60;1.70;;;13.70;49.20;;;;;;5308835;28;20048;-32
2022/04/01 13:20:30;;;;;;;2.40;1.60;;;13.70;49.90;;;;;;5308442;28;20078;-32
2022/04/01 13:23:03;;;;;;;3.27;1.67;;;13.70;49.70;;;;;;5308037;28;20040;-32
2022/04/01 13:25:34;;;;;;;;;;;13.60;49.10;;;;;;5289153;28;20059;-32
2022/04/01 13:28:05;;;;;;;;;;;13.70;49.20;;;;;;5287469;28;20372;-31
2022/04/01 13:30:37;;;;;;;;;;;13.90;48.50;;;;;;5287410;28;19938;-31
2022/04/01 13:33:10;;;;;;;;;;;14.10;48.50;;;;;;5288181;28;19926;-31
2022/04/01 13:35:42;;;;;;;;;;;14.20;48.60;;;;;;5287428;28;19923;-32
2022/04/01 13:38:15;;;;;;;;;;;14.40;48.00;;;;;;5287748;28;19943;-35
2022/04/01 13:40:48;;;;;;;;;;;14.50;47.30;;;;;;5287236;28;19928;-37
2022/04/01 13:43:20;;;;;;;;;;;14.60;47.00;;;;;;5269699;28;19920;-34